sensor_id;sensor_type;location;lat;lon;timestamp;temperature;humidity
36450;DHT22;22475;51.390;7.180;2023-06-04T00:00:27;17.70;76.30
36450;DHT22;22475;51.390;7.180;2023-06-04T00:02:54;17.70;76.30
36450;DHT22;22475;51.390;7.180;2023-06-04T00:05:21;17.70;76.30
36450;DHT22;22475;51.390;7.180;2023-06-04T00:07:52;17.70;76.40
36450;DHT22;22475;51.390;7.180;2023-06-04T00:10:18;17.70;76.40
36450;DHT22;22475;51.390;7.180;2023-06-04T00:12:45;17.60;76.30
36450;DHT22;22475;51.390;7.180;2023-06-04T00:15:13;17.60;76.40
36450;DHT22;22475;51.390;7.180;2023-06-04T00:17:40;17.70;77.20
36450;DHT22;22475;51.390;7.180;2023-06-04T00:20:08;17.70;77.50
36450;DHT22;22475;51.390;7.180;2023-06-04T00:22:35;17.70;77.30
36450;DHT22;22475;51.390;7.180;2023-06-04T00:25:03;17.60;77.00
36450;DHT22;22475;51.390;7.180;2023-06-04T00:27:30;17.60;76.90
36450;DHT22;22475;51.390;7.180;2023-06-04T00:29:57;17.60;76.70
36450;DHT22;22475;51.390;7.180;2023-06-04T00:32:23;17.60;76.60
36450;DHT22;22475;51.390;7.180;2023-06-04T00:34:51;17.60;76.70
36450;DHT22;22475;51.390;7.180;2023-06-04T00:37:17;17.60;77.00
36450;DHT22;22475;51.390;7.180;2023-06-04T00:39:45;17.60;77.00
36450;DHT22;22475;51.390;7.180;2023-06-04T00:42:13;17.60;77.00
36450;DHT22;22475;51.390;7.180;2023-06-04T00:44:40;17.60;76.70
36450;DHT22;22475;51.390;7.180;2023-06-04T00:47:09;17.60;76.40
36450;DHT22;22475;51.390;7.180;2023-06-04T00:49:37;17.60;76.40
36450;DHT22;22475;51.390;7.180;2023-06-04T00:52:04;17.60;76.50
36450;DHT22;22475;51.390;7.180;2023-06-04T00:54:31;17.60;76.70
36450;DHT22;22475;51.390;7.180;2023-06-04T00:56:59;17.60;76.80
36450;DHT22;22475;51.390;7.180;2023-06-04T00:59:28;17.60;76.50
36450;DHT22;22475;51.390;7.180;2023-06-04T01:02:00;17.50;76.20
36450;DHT22;22475;51.390;7.180;2023-06-04T01:04:31;17.50;76.00
36450;DHT22;22475;51.390;7.180;2023-06-04T01:07:03;17.50;76.00
36450;DHT22;22475;51.390;7.180;2023-06-04T01:09:30;17.60;76.40
36450;DHT22;22475;51.390;7.180;2023-06-04T01:11:57;17.50;76.80
36450;DHT22;22475;51.390;7.180;2023-06-04T01:14:28;17.50;77.20
36450;DHT22;22475;51.390;7.180;2023-06-04T01:16:58;17.60;77.50
36450;DHT22;22475;51.390;7.180;2023-06-04T01:19:52;17.50;77.50
36450;DHT22;22475;51.390;7.180;2023-06-04T01:22:31;17.50;77.40
36450;DHT22;22475;51.390;7.180;2023-06-04T01:25:02;17.50;77.40
36450;DHT22;22475;51.390;7.180;2023-06-04T01:27:30;17.50;77.30
36450;DHT22;22475;51.390;7.180;2023-06-04T01:29:59;17.50;77.20
36450;DHT22;22475;51.390;7.180;2023-06-04T01:32:26;17.50;77.00
36450;DHT22;22475;51.390;7.180;2023-06-04T01:34:53;17.50;76.90
36450;DHT22;22475;51.390;7.180;2023-06-04T01:37:20;17.50;77.00
36450;DHT22;22475;51.390;7.180;2023-06-04T01:39:47;17.50;77.10
36450;DHT22;22475;51.390;7.180;2023-06-04T01:42:13;17.40;77.10
36450;DHT22;22475;51.390;7.180;2023-06-04T01:44:40;17.40;77.20
36450;DHT22;22475;51.390;7.180;2023-06-04T01:47:08;17.40;77.30
36450;DHT22;22475;51.390;7.180;2023-06-04T01:49:35;17.50;77.50
36450;DHT22;22475;51.390;7.180;2023-06-04T01:52:03;17.40;77.40
36450;DHT22;22475;51.390;7.180;2023-06-04T01:54:31;17.40;77.30
36450;DHT22;22475;51.390;7.180;2023-06-04T01:56:59;17.40;77.50
36450;DHT22;22475;51.390;7.180;2023-06-04T01:59:26;17.40;77.60
36450;DHT22;22475;51.390;7.180;2023-06-04T02:01:53;17.40;77.70
36450;DHT22;22475;51.390;7.180;2023-06-04T02:04:21;17.40;77.80
36450;DHT22;22475;51.390;7.180;2023-06-04T02:06:48;17.40;77.90
36450;DHT22;22475;51.390;7.180;2023-06-04T02:09:15;17.30;77.90
36450;DHT22;22475;51.390;7.180;2023-06-04T02:11:41;17.40;77.90
36450;DHT22;22475;51.390;7.180;2023-06-04T02:14:08;17.30;78.00
36450;DHT22;22475;51.390;7.180;2023-06-04T02:16:35;17.30;77.90
36450;DHT22;22475;51.390;7.180;2023-06-04T02:19:03;17.30;78.00
36450;DHT22;22475;51.390;7.180;2023-06-04T02:21:31;17.30;78.00
36450;DHT22;22475;51.390;7.180;2023-06-04T02:23:58;17.30;77.90
36450;DHT22;22475;51.390;7.180;2023-06-04T02:26:25;17.20;77.60
36450;DHT22;22475;51.390;7.180;2023-06-04T02:28:52;17.30;77.80
36450;DHT22;22475;51.390;7.180;2023-06-04T02:31:19;17.30;77.80
36450;DHT22;22475;51.390;7.180;2023-06-04T02:33:46;17.30;77.80
36450;DHT22;22475;51.390;7.180;2023-06-04T02:36:13;17.20;77.60
36450;DHT22;22475;51.390;7.180;2023-06-04T02:38:42;17.30;77.70
36450;DHT22;22475;51.390;7.180;2023-06-04T02:41:09;17.30;77.50
36450;DHT22;22475;51.390;7.180;2023-06-04T02:43:36;17.20;77.40
36450;DHT22;22475;51.390;7.180;2023-06-04T02:46:03;17.20;77.30
36450;DHT22;22475;51.390;7.180;2023-06-04T02:48:31;17.20;77.30
36450;DHT22;22475;51.390;7.180;2023-06-04T02:50:58;17.20;77.40
36450;DHT22;22475;51.390;7.180;2023-06-04T02:53:25;17.20;77.30
36450;DHT22;22475;51.390;7.180;2023-06-04T02:55:53;17.10;77.10
36450;DHT22;22475;51.390;7.180;2023-06-04T02:58:20;17.20;77.00
36450;DHT22;22475;51.390;7.180;2023-06-04T03:00:51;17.20;77.00
36450;DHT22;22475;51.390;7.180;2023-06-04T03:03:18;17.20;77.00
36450;DHT22;22475;51.390;7.180;2023-06-04T03:05:45;17.10;76.80
36450;DHT22;22475;51.390;7.180;2023-06-04T03:08:12;17.10;76.70
36450;DHT22;22475;51.390;7.180;2023-06-04T03:10:38;17.10;76.50
36450;DHT22;22475;51.390;7.180;2023-06-04T03:13:07;17.20;76.40
36450;DHT22;22475;51.390;7.180;2023-06-04T03:15:33;17.10;76.10
36450;DHT22;22475;51.390;7.180;2023-06-04T03:18:04;17.10;75.90
36450;DHT22;22475;51.390;7.180;2023-06-04T03:20:31;17.10;75.80
36450;DHT22;22475;51.390;7.180;2023-06-04T03:23:00;17.10;75.80
36450;DHT22;22475;51.390;7.180;2023-06-04T03:25:27;17.10;75.80
36450;DHT22;22475;51.390;7.180;2023-06-04T03:27:54;17.10;75.80
36450;DHT22;22475;51.390;7.180;2023-06-04T03:30:22;17.10;75.80
36450;DHT22;22475;51.390;7.180;2023-06-04T03:32:49;17.10;76.00
36450;DHT22;22475;51.390;7.180;2023-06-04T03:35:15;17.10;76.00
36450;DHT22;22475;51.390;7.180;2023-06-04T03:37:42;17.10;75.90
36450;DHT22;22475;51.390;7.180;2023-06-04T03:40:10;17.10;75.90
36450;DHT22;22475;51.390;7.180;2023-06-04T03:42:37;17.10;76.00
36450;DHT22;22475;51.390;7.180;2023-06-04T03:45:04;17.10;76.00
36450;DHT22;22475;51.390;7.180;2023-06-04T03:47:32;17.10;75.80
36450;DHT22;22475;51.390;7.180;2023-06-04T03:49:59;17.10;75.60
36450;DHT22;22475;51.390;7.180;2023-06-04T03:52:26;17.10;75.80
36450;DHT22;22475;51.390;7.180;2023-06-04T03:54:52;17.10;75.90
36450;DHT22;22475;51.390;7.180;2023-06-04T03:57:19;17.10;75.90
36450;DHT22;22475;51.390;7.180;2023-06-04T03:59:46;17.10;75.80
36450;DHT22;22475;51.390;7.180;2023-06-04T04:02:13;17.10;75.60
36450;DHT22;22475;51.390;7.180;2023-06-04T04:04:41;17.00;75.60
36450;DHT22;22475;51.390;7.180;2023-06-04T04:07:08;17.00;75.60
36450;DHT22;22475;51.390;7.180;2023-06-04T04:09:36;17.10;75.70
36450;DHT22;22475;51.390;7.180;2023-06-04T04:12:03;17.10;75.60
36450;DHT22;22475;51.390;7.180;2023-06-04T04:14:30;17.00;75.50
36450;DHT22;22475;51.390;7.180;2023-06-04T04:16:56;17.00;75.40
36450;DHT22;22475;51.390;7.180;2023-06-04T04:19:24;17.00;75.40
36450;DHT22;22475;51.390;7.180;2023-06-04T04:21:56;17.00;75.30
36450;DHT22;22475;51.390;7.180;2023-06-04T04:24:23;17.00;75.50
36450;DHT22;22475;51.390;7.180;2023-06-04T04:26:50;17.00;75.70
36450;DHT22;22475;51.390;7.180;2023-06-04T04:29:19;17.00;75.80
36450;DHT22;22475;51.390;7.180;2023-06-04T04:31:48;17.00;75.80
36450;DHT22;22475;51.390;7.180;2023-06-04T04:34:15;17.00;76.00
36450;DHT22;22475;51.390;7.180;2023-06-04T04:36:42;17.00;76.00
36450;DHT22;22475;51.390;7.180;2023-06-04T04:39:10;17.00;76.00
36450;DHT22;22475;51.390;7.180;2023-06-04T04:41:37;17.00;76.00
36450;DHT22;22475;51.390;7.180;2023-06-04T04:44:04;17.00;76.00
36450;DHT22;22475;51.390;7.180;2023-06-04T04:46:31;17.00;76.00
36450;DHT22;22475;51.390;7.180;2023-06-04T04:48:58;17.00;76.00
36450;DHT22;22475;51.390;7.180;2023-06-04T04:51:25;17.00;76.10
36450;DHT22;22475;51.390;7.180;2023-06-04T04:53:52;17.00;76.20
36450;DHT22;22475;51.390;7.180;2023-06-04T04:56:21;17.00;76.10
36450;DHT22;22475;51.390;7.180;2023-06-04T04:58:48;17.00;76.10
36450;DHT22;22475;51.390;7.180;2023-06-04T05:01:15;17.00;76.20
36450;DHT22;22475;51.390;7.180;2023-06-04T05:03:42;17.00;76.30
36450;DHT22;22475;51.390;7.180;2023-06-04T05:06:09;17.00;76.60
36450;DHT22;22475;51.390;7.180;2023-06-04T05:08:36;17.00;76.70
36450;DHT22;22475;51.390;7.180;2023-06-04T05:11:02;17.00;76.60
36450;DHT22;22475;51.390;7.180;2023-06-04T05:13:30;17.00;76.60
36450;DHT22;22475;51.390;7.180;2023-06-04T05:15:57;17.00;76.50
36450;DHT22;22475;51.390;7.180;2023-06-04T05:18:25;17.00;76.60
36450;DHT22;22475;51.390;7.180;2023-06-04T05:20:54;17.00;76.60
36450;DHT22;22475;51.390;7.180;2023-06-04T05:23:21;17.00;76.70
36450;DHT22;22475;51.390;7.180;2023-06-04T05:25:47;17.00;76.70
36450;DHT22;22475;51.390;7.180;2023-06-04T05:28:15;17.00;76.70
36450;DHT22;22475;51.390;7.180;2023-06-04T05:30:43;17.00;76.60
36450;DHT22;22475;51.390;7.180;2023-06-04T05:33:14;17.10;76.60
36450;DHT22;22475;51.390;7.180;2023-06-04T05:35:45;17.10;76.50
36450;DHT22;22475;51.390;7.180;2023-06-04T05:38:12;17.10;76.50
36450;DHT22;22475;51.390;7.180;2023-06-04T05:40:42;17.00;76.50
36450;DHT22;22475;51.390;7.180;2023-06-04T05:43:09;17.10;76.80
36450;DHT22;22475;51.390;7.180;2023-06-04T05:45:36;17.10;76.70
36450;DHT22;22475;51.390;7.180;2023-06-04T05:48:04;17.10;76.60
36450;DHT22;22475;51.390;7.180;2023-06-04T05:50:31;17.10;76.60
36450;DHT22;22475;51.390;7.180;2023-06-04T05:52:58;17.10;76.40
36450;DHT22;22475;51.390;7.180;2023-06-04T05:55:25;17.10;76.30
36450;DHT22;22475;51.390;7.180;2023-06-04T05:57:54;17.10;76.20
36450;DHT22;22475;51.390;7.180;2023-06-04T06:00:21;17.10;76.10
36450;DHT22;22475;51.390;7.180;2023-06-04T06:02:48;17.10;76.30
36450;DHT22;22475;51.390;7.180;2023-06-04T06:05:18;17.10;76.30
36450;DHT22;22475;51.390;7.180;2023-06-04T06:07:45;17.10;76.30
36450;DHT22;22475;51.390;7.180;2023-06-04T06:10:12;17.10;76.30
36450;DHT22;22475;51.390;7.180;2023-06-04T06:12:39;17.20;76.30
36450;DHT22;22475;51.390;7.180;2023-06-04T06:15:07;17.20;76.60
36450;DHT22;22475;51.390;7.180;2023-06-04T06:17:34;17.10;77.00
36450;DHT22;22475;51.390;7.180;2023-06-04T06:20:00;17.20;76.80
36450;DHT22;22475;51.390;7.180;2023-06-04T06:22:32;17.10;76.30
36450;DHT22;22475;51.390;7.180;2023-06-04T06:24:59;17.20;76.20
36450;DHT22;22475;51.390;7.180;2023-06-04T06:27:26;17.20;75.80
36450;DHT22;22475;51.390;7.180;2023-06-04T06:29:53;17.20;75.70
36450;DHT22;22475;51.390;7.180;2023-06-04T06:32:19;17.20;75.70
36450;DHT22;22475;51.390;7.180;2023-06-04T06:34:46;17.20;75.60
36450;DHT22;22475;51.390;7.180;2023-06-04T06:37:13;17.20;76.00
36450;DHT22;22475;51.390;7.180;2023-06-04T06:39:41;17.20;75.90
36450;DHT22;22475;51.390;7.180;2023-06-04T06:42:08;17.20;75.90
36450;DHT22;22475;51.390;7.180;2023-06-04T06:44:35;17.20;76.30
36450;DHT22;22475;51.390;7.180;2023-06-04T06:47:01;17.20;76.20
36450;DHT22;22475;51.390;7.180;2023-06-04T06:49:28;17.20;76.00
36450;DHT22;22475;51.390;7.180;2023-06-04T06:51:55;17.20;75.90
36450;DHT22;22475;51.390;7.180;2023-06-04T06:54:23;17.30;76.20
36450;DHT22;22475;51.390;7.180;2023-06-04T06:56:51;17.20;75.80
36450;DHT22;22475;51.390;7.180;2023-06-04T06:59:18;17.20;75.50
36450;DHT22;22475;51.390;7.180;2023-06-04T07:01:45;17.20;75.40
36450;DHT22;22475;51.390;7.180;2023-06-04T07:04:12;17.30;75.40
36450;DHT22;22475;51.390;7.180;2023-06-04T07:06:39;17.20;75.20
36450;DHT22;22475;51.390;7.180;2023-06-04T07:09:06;17.30;75.50
36450;DHT22;22475;51.390;7.180;2023-06-04T07:11:33;17.30;75.50
36450;DHT22;22475;51.390;7.180;2023-06-04T07:14:01;17.30;76.00
36450;DHT22;22475;51.390;7.180;2023-06-04T07:16:28;17.30;75.90
36450;DHT22;22475;51.390;7.180;2023-06-04T07:18:55;17.30;75.70
36450;DHT22;22475;51.390;7.180;2023-06-04T07:21:22;17.30;76.00
36450;DHT22;22475;51.390;7.180;2023-06-04T07:23:49;17.30;76.00
36450;DHT22;22475;51.390;7.180;2023-06-04T07:26:16;17.30;76.20
36450;DHT22;22475;51.390;7.180;2023-06-04T07:28:43;17.30;75.80
36450;DHT22;22475;51.390;7.180;2023-06-04T07:31:15;17.30;75.50
36450;DHT22;22475;51.390;7.180;2023-06-04T07:33:42;17.30;75.10
36450;DHT22;22475;51.390;7.180;2023-06-04T07:36:10;17.30;74.90
36450;DHT22;22475;51.390;7.180;2023-06-04T07:38:36;17.30;74.90
36450;DHT22;22475;51.390;7.180;2023-06-04T07:41:03;17.40;74.80
36450;DHT22;22475;51.390;7.180;2023-06-04T07:43:30;17.30;74.80
36450;DHT22;22475;51.390;7.180;2023-06-04T07:45:57;17.30;74.70
36450;DHT22;22475;51.390;7.180;2023-06-04T07:48:25;17.30;75.00
36450;DHT22;22475;51.390;7.180;2023-06-04T07:50:56;17.40;75.30
36450;DHT22;22475;51.390;7.180;2023-06-04T07:53:23;17.40;75.30
36450;DHT22;22475;51.390;7.180;2023-06-04T07:55:49;17.40;75.10
36450;DHT22;22475;51.390;7.180;2023-06-04T07:58:16;17.40;74.90
36450;DHT22;22475;51.390;7.180;2023-06-04T08:00:43;17.40;75.10
36450;DHT22;22475;51.390;7.180;2023-06-04T08:03:10;17.40;74.90
36450;DHT22;22475;51.390;7.180;2023-06-04T08:05:38;17.40;75.20
36450;DHT22;22475;51.390;7.180;2023-06-04T08:08:05;17.50;76.40
36450;DHT22;22475;51.390;7.180;2023-06-04T08:10:34;17.40;75.50
36450;DHT22;22475;51.390;7.180;2023-06-04T08:13:01;17.40;75.30
36450;DHT22;22475;51.390;7.180;2023-06-04T08:15:28;17.40;75.00
36450;DHT22;22475;51.390;7.180;2023-06-04T08:17:55;17.50;75.10
36450;DHT22;22475;51.390;7.180;2023-06-04T08:20:22;17.40;75.50
36450;DHT22;22475;51.390;7.180;2023-06-04T08:22:51;17.50;75.90
36450;DHT22;22475;51.390;7.180;2023-06-04T08:25:17;17.50;76.20
36450;DHT22;22475;51.390;7.180;2023-06-04T08:27:44;17.50;76.60
36450;DHT22;22475;51.390;7.180;2023-06-04T08:30:11;17.50;76.40
36450;DHT22;22475;51.390;7.180;2023-06-04T08:32:38;17.50;75.70
36450;DHT22;22475;51.390;7.180;2023-06-04T08:35:06;17.50;75.20
36450;DHT22;22475;51.390;7.180;2023-06-04T08:37:33;17.50;74.80
36450;DHT22;22475;51.390;7.180;2023-06-04T08:40:02;17.50;74.50
36450;DHT22;22475;51.390;7.180;2023-06-04T08:42:38;17.50;75.10
36450;DHT22;22475;51.390;7.180;2023-06-04T08:45:08;17.50;75.70
36450;DHT22;22475;51.390;7.180;2023-06-04T08:47:37;17.50;76.10
36450;DHT22;22475;51.390;7.180;2023-06-04T08:50:07;17.50;76.00
36450;DHT22;22475;51.390;7.180;2023-06-04T08:52:40;17.50;76.30
36450;DHT22;22475;51.390;7.180;2023-06-04T08:55:09;17.50;76.10
36450;DHT22;22475;51.390;7.180;2023-06-04T08:57:38;17.60;76.00
36450;DHT22;22475;51.390;7.180;2023-06-04T09:00:07;17.50;76.30
36450;DHT22;22475;51.390;7.180;2023-06-04T09:02:36;17.50;76.90
36450;DHT22;22475;51.390;7.180;2023-06-04T09:05:03;17.50;76.90
36450;DHT22;22475;51.390;7.180;2023-06-04T09:07:34;17.60;76.60
36450;DHT22;22475;51.390;7.180;2023-06-04T09:10:02;17.60;76.90
36450;DHT22;22475;51.390;7.180;2023-06-04T09:12:32;17.60;76.60
36450;DHT22;22475;51.390;7.180;2023-06-04T09:14:59;17.60;76.30
36450;DHT22;22475;51.390;7.180;2023-06-04T09:17:27;17.60;76.70
36450;DHT22;22475;51.390;7.180;2023-06-04T09:19:55;17.60;77.30
36450;DHT22;22475;51.390;7.180;2023-06-04T09:22:32;17.60;77.40
36450;DHT22;22475;51.390;7.180;2023-06-04T09:24:59;17.60;77.40
36450;DHT22;22475;51.390;7.180;2023-06-04T09:27:25;17.60;77.60
36450;DHT22;22475;51.390;7.180;2023-06-04T09:29:56;17.60;77.90
36450;DHT22;22475;51.390;7.180;2023-06-04T09:32:24;17.60;77.70
36450;DHT22;22475;51.390;7.180;2023-06-04T09:34:52;17.60;77.60
36450;DHT22;22475;51.390;7.180;2023-06-04T09:37:20;17.60;77.70
36450;DHT22;22475;51.390;7.180;2023-06-04T09:39:53;17.60;77.90
36450;DHT22;22475;51.390;7.180;2023-06-04T09:42:20;17.60;78.10
36450;DHT22;22475;51.390;7.180;2023-06-04T09:44:47;17.60;78.20
36450;DHT22;22475;51.390;7.180;2023-06-04T09:47:16;17.60;78.20
36450;DHT22;22475;51.390;7.180;2023-06-04T09:49:43;17.60;78.30
36450;DHT22;22475;51.390;7.180;2023-06-04T09:52:10;17.60;78.50
36450;DHT22;22475;51.390;7.180;2023-06-04T09:54:39;17.60;78.60
36450;DHT22;22475;51.390;7.180;2023-06-04T09:57:14;17.60;78.80
36450;DHT22;22475;51.390;7.180;2023-06-04T09:59:43;17.60;79.00
36450;DHT22;22475;51.390;7.180;2023-06-04T10:02:12;17.60;79.00
36450;DHT22;22475;51.390;7.180;2023-06-04T10:04:41;17.60;79.00
36450;DHT22;22475;51.390;7.180;2023-06-04T10:07:09;17.70;79.20
36450;DHT22;22475;51.390;7.180;2023-06-04T10:09:38;17.60;79.20
36450;DHT22;22475;51.390;7.180;2023-06-04T10:12:11;17.60;79.40
36450;DHT22;22475;51.390;7.180;2023-06-04T10:14:43;17.60;79.50
36450;DHT22;22475;51.390;7.180;2023-06-04T10:17:12;17.60;79.80
36450;DHT22;22475;51.390;7.180;2023-06-04T10:19:43;17.60;79.90
36450;DHT22;22475;51.390;7.180;2023-06-04T10:22:11;17.70;80.10
36450;DHT22;22475;51.390;7.180;2023-06-04T10:24:38;17.70;80.20
36450;DHT22;22475;51.390;7.180;2023-06-04T10:27:06;17.70;80.30
36450;DHT22;22475;51.390;7.180;2023-06-04T10:29:36;17.70;80.10
36450;DHT22;22475;51.390;7.180;2023-06-04T10:32:04;17.70;80.30
36450;DHT22;22475;51.390;7.180;2023-06-04T10:34:32;17.70;80.40
36450;DHT22;22475;51.390;7.180;2023-06-04T10:37:01;17.70;80.50
36450;DHT22;22475;51.390;7.180;2023-06-04T10:39:29;17.70;80.50
36450;DHT22;22475;51.390;7.180;2023-06-04T10:41:59;17.70;80.80
36450;DHT22;22475;51.390;7.180;2023-06-04T10:44:25;17.70;80.80
36450;DHT22;22475;51.390;7.180;2023-06-04T10:46:52;17.70;80.90
36450;DHT22;22475;51.390;7.180;2023-06-04T10:49:26;17.70;80.90
36450;DHT22;22475;51.390;7.180;2023-06-04T10:51:53;17.70;81.10
36450;DHT22;22475;51.390;7.180;2023-06-04T10:54:25;17.70;81.10
36450;DHT22;22475;51.390;7.180;2023-06-04T10:56:52;17.70;81.20
36450;DHT22;22475;51.390;7.180;2023-06-04T10:59:19;17.70;81.20
36450;DHT22;22475;51.390;7.180;2023-06-04T11:01:47;17.70;81.20
36450;DHT22;22475;51.390;7.180;2023-06-04T11:04:21;17.70;81.20
36450;DHT22;22475;51.390;7.180;2023-06-04T11:06:48;17.70;81.30
36450;DHT22;22475;51.390;7.180;2023-06-04T11:09:16;17.70;81.30
36450;DHT22;22475;51.390;7.180;2023-06-04T11:11:56;17.70;81.30
36450;DHT22;22475;51.390;7.180;2023-06-04T11:14:23;17.70;82.10
36450;DHT22;22475;51.390;7.180;2023-06-04T11:16:50;17.70;81.20
36450;DHT22;22475;51.390;7.180;2023-06-04T11:19:17;17.70;81.30
36450;DHT22;22475;51.390;7.180;2023-06-04T11:21:43;17.70;81.30
36450;DHT22;22475;51.390;7.180;2023-06-04T11:24:12;17.70;81.30
36450;DHT22;22475;51.390;7.180;2023-06-04T11:26:39;17.70;81.40
36450;DHT22;22475;51.390;7.180;2023-06-04T11:29:08;17.80;81.50
36450;DHT22;22475;51.390;7.180;2023-06-04T11:31:41;17.80;81.60
36450;DHT22;22475;51.390;7.180;2023-06-04T11:34:08;17.70;81.60
36450;DHT22;22475;51.390;7.180;2023-06-04T11:36:37;17.70;81.60
36450;DHT22;22475;51.390;7.180;2023-06-04T11:39:05;17.80;81.60
36450;DHT22;22475;51.390;7.180;2023-06-04T11:41:33;17.70;81.60
36450;DHT22;22475;51.390;7.180;2023-06-04T11:44:03;17.80;81.80
36450;DHT22;22475;51.390;7.180;2023-06-04T11:46:32;17.80;81.80
36450;DHT22;22475;51.390;7.180;2023-06-04T11:48:59;17.80;81.80
36450;DHT22;22475;51.390;7.180;2023-06-04T11:51:26;17.80;81.90
36450;DHT22;22475;51.390;7.180;2023-06-04T11:53:53;17.80;81.90
36450;DHT22;22475;51.390;7.180;2023-06-04T11:56:21;17.80;81.90
36450;DHT22;22475;51.390;7.180;2023-06-04T11:58:48;17.80;81.90
36450;DHT22;22475;51.390;7.180;2023-06-04T12:01:15;17.70;81.80
36450;DHT22;22475;51.390;7.180;2023-06-04T12:03:43;17.80;82.00
36450;DHT22;22475;51.390;7.180;2023-06-04T12:06:14;17.80;82.00
36450;DHT22;22475;51.390;7.180;2023-06-04T12:08:46;17.80;82.00
36450;DHT22;22475;51.390;7.180;2023-06-04T12:11:28;17.80;82.00
36450;DHT22;22475;51.390;7.180;2023-06-04T12:13:57;17.80;82.00
36450;DHT22;22475;51.390;7.180;2023-06-04T12:16:25;17.80;81.90
36450;DHT22;22475;51.390;7.180;2023-06-04T12:19:04;17.80;82.00
36450;DHT22;22475;51.390;7.180;2023-06-04T12:21:32;17.80;82.00
36450;DHT22;22475;51.390;7.180;2023-06-04T12:24:06;17.80;81.90
36450;DHT22;22475;51.390;7.180;2023-06-04T12:26:33;17.80;82.00
36450;DHT22;22475;51.390;7.180;2023-06-04T12:29:08;17.80;82.00
36450;DHT22;22475;51.390;7.180;2023-06-04T12:31:35;17.80;82.00
36450;DHT22;22475;51.390;7.180;2023-06-04T12:34:04;17.80;82.00
36450;DHT22;22475;51.390;7.180;2023-06-04T12:36:30;17.80;82.10
36450;DHT22;22475;51.390;7.180;2023-06-04T12:38:59;17.80;82.10
36450;DHT22;22475;51.390;7.180;2023-06-04T12:41:27;17.80;82.10
36450;DHT22;22475;51.390;7.180;2023-06-04T12:43:54;17.80;82.20
36450;DHT22;22475;51.390;7.180;2023-06-04T12:46:20;17.80;82.20
36450;DHT22;22475;51.390;7.180;2023-06-04T12:48:48;17.80;82.20
36450;DHT22;22475;51.390;7.180;2023-06-04T12:51:16;17.80;82.20
36450;DHT22;22475;51.390;7.180;2023-06-04T12:53:43;17.80;82.30
36450;DHT22;22475;51.390;7.180;2023-06-04T12:56:10;17.80;82.30
36450;DHT22;22475;51.390;7.180;2023-06-04T12:58:37;17.80;82.30
36450;DHT22;22475;51.390;7.180;2023-06-04T13:01:04;17.80;82.30
36450;DHT22;22475;51.390;7.180;2023-06-04T13:03:31;17.80;82.30
36450;DHT22;22475;51.390;7.180;2023-06-04T13:05:58;17.80;82.20
36450;DHT22;22475;51.390;7.180;2023-06-04T13:08:26;17.80;82.30
36450;DHT22;22475;51.390;7.180;2023-06-04T13:10:53;17.90;82.40
36450;DHT22;22475;51.390;7.180;2023-06-04T13:13:20;17.90;82.50
36450;DHT22;22475;51.390;7.180;2023-06-04T13:15:47;17.90;82.50
36450;DHT22;22475;51.390;7.180;2023-06-04T13:18:14;17.90;82.40
36450;DHT22;22475;51.390;7.180;2023-06-04T13:20:41;17.90;82.50
36450;DHT22;22475;51.390;7.180;2023-06-04T13:23:08;17.80;82.40
36450;DHT22;22475;51.390;7.180;2023-06-04T13:25:36;17.90;82.50
36450;DHT22;22475;51.390;7.180;2023-06-04T13:28:03;17.90;82.50
36450;DHT22;22475;51.390;7.180;2023-06-04T13:30:30;17.90;82.40
36450;DHT22;22475;51.390;7.180;2023-06-04T13:32:57;17.90;82.40
36450;DHT22;22475;51.390;7.180;2023-06-04T13:35:24;17.90;82.40
36450;DHT22;22475;51.390;7.180;2023-06-04T13:37:51;17.90;82.20
36450;DHT22;22475;51.390;7.180;2023-06-04T13:40:18;17.90;82.20
36450;DHT22;22475;51.390;7.180;2023-06-04T13:42:46;17.90;82.20
36450;DHT22;22475;51.390;7.180;2023-06-04T13:45:13;17.90;82.20
36450;DHT22;22475;51.390;7.180;2023-06-04T13:47:41;17.90;82.30
36450;DHT22;22475;51.390;7.180;2023-06-04T13:50:09;17.90;82.30
36450;DHT22;22475;51.390;7.180;2023-06-04T13:52:36;17.90;82.40
36450;DHT22;22475;51.390;7.180;2023-06-04T13:55:03;17.90;82.40
36450;DHT22;22475;51.390;7.180;2023-06-04T13:57:30;18.00;82.50
36450;DHT22;22475;51.390;7.180;2023-06-04T13:59:58;17.90;82.50
36450;DHT22;22475;51.390;7.180;2023-06-04T14:02:25;17.90;82.50
36450;DHT22;22475;51.390;7.180;2023-06-04T14:04:53;17.90;82.50
36450;DHT22;22475;51.390;7.180;2023-06-04T14:07:20;17.90;82.50
36450;DHT22;22475;51.390;7.180;2023-06-04T14:09:47;17.90;82.50
36450;DHT22;22475;51.390;7.180;2023-06-04T14:12:14;17.90;82.60
36450;DHT22;22475;51.390;7.180;2023-06-04T14:14:43;17.90;82.60
36450;DHT22;22475;51.390;7.180;2023-06-04T14:17:11;18.00;82.50
36450;DHT22;22475;51.390;7.180;2023-06-04T14:19:39;18.00;82.40
36450;DHT22;22475;51.390;7.180;2023-06-04T14:22:06;18.00;82.40
36450;DHT22;22475;51.390;7.180;2023-06-04T14:24:33;18.00;82.30
36450;DHT22;22475;51.390;7.180;2023-06-04T14:27:00;18.00;82.30
36450;DHT22;22475;51.390;7.180;2023-06-04T14:29:27;18.00;82.30
36450;DHT22;22475;51.390;7.180;2023-06-04T14:31:53;18.00;82.30
36450;DHT22;22475;51.390;7.180;2023-06-04T14:34:22;18.00;82.30
36450;DHT22;22475;51.390;7.180;2023-06-04T14:36:48;18.00;82.30
36450;DHT22;22475;51.390;7.180;2023-06-04T14:39:15;18.00;82.30
36450;DHT22;22475;51.390;7.180;2023-06-04T14:41:42;18.00;82.40
36450;DHT22;22475;51.390;7.180;2023-06-04T14:44:08;18.00;82.40
36450;DHT22;22475;51.390;7.180;2023-06-04T14:46:35;18.00;82.50
36450;DHT22;22475;51.390;7.180;2023-06-04T14:49:02;18.00;82.50
36450;DHT22;22475;51.390;7.180;2023-06-04T14:51:30;18.00;82.50
36450;DHT22;22475;51.390;7.180;2023-06-04T14:53:57;18.00;82.50
36450;DHT22;22475;51.390;7.180;2023-06-04T14:56:23;18.00;82.50
36450;DHT22;22475;51.390;7.180;2023-06-04T14:58:51;18.00;82.50
36450;DHT22;22475;51.390;7.180;2023-06-04T15:01:18;18.00;82.40
36450;DHT22;22475;51.390;7.180;2023-06-04T15:03:48;18.00;82.40
36450;DHT22;22475;51.390;7.180;2023-06-04T15:06:14;18.00;82.40
36450;DHT22;22475;51.390;7.180;2023-06-04T15:08:42;18.00;82.40
36450;DHT22;22475;51.390;7.180;2023-06-04T15:11:10;18.10;82.50
36450;DHT22;22475;51.390;7.180;2023-06-04T15:13:36;18.00;82.50
36450;DHT22;22475;51.390;7.180;2023-06-04T15:16:03;18.00;82.50
36450;DHT22;22475;51.390;7.180;2023-06-04T15:18:30;18.10;82.70
36450;DHT22;22475;51.390;7.180;2023-06-04T15:20:57;18.00;82.60
36450;DHT22;22475;51.390;7.180;2023-06-04T15:23:23;18.10;82.70
36450;DHT22;22475;51.390;7.180;2023-06-04T15:25:52;18.00;82.70
36450;DHT22;22475;51.390;7.180;2023-06-04T15:28:18;18.10;82.80
36450;DHT22;22475;51.390;7.180;2023-06-04T15:30:45;18.10;82.80
36450;DHT22;22475;51.390;7.180;2023-06-04T15:33:12;18.10;82.80